Latest Weather Observations for Lajamanu

IDD60801

Issued at 11:31 pm CST Sunday 20 May 2018 (issued every 10 minutes, with the page automatically refreshed every 10 minutes)

About weather observations | Map of weather stations | Latest weather observations for NT | Other Formats
Station Details ID: 014829 Name: LAJAMANU AIRPORT Lat: -18.33 Lon: 130.64 Height: 315.6 m
Data from the previous 72 hours. | See also: Recent months at Lajamanu
Date/Time
CST
Temp
°C
App
Temp
°C
Dew
Point
°C
Rel
Hum
%
Delta-T
°C
Wind Press
QNH
hPa
Press
MSL
hPa
Rain since
9am
mm
Dir  Spd
km/h
Gust
km/h
Spd
kts
Gust
kts
20/11:30pm 18.6 13.4 0.2 29 8.2 SE 17 22 9 12 1019.5 1018.2 0.0
20/11:00pm 19.0 13.9 0.6 29 8.3 SE 17 22 9 12 1019.6 1018.3 0.0
20/10:30pm 19.6 14.6 1.1 29 8.4 SE 17 24 9 13 1019.7 1018.4 0.0
20/10:00pm 20.0 15.0 1.4 29 8.6 SE 17 22 9 12 1019.6 1018.3 0.0
20/09:30pm 20.5 16.0 1.9 29 8.7 SE 15 20 8 11 1019.5 1018.2 0.0
20/09:00pm 20.6 16.5 2.0 29 8.7 SE 13 19 7 10 1019.3 1018.1 0.0
20/08:30pm 20.2 16.8 1.6 29 8.6 SE 9 13 5 7 1018.9 1017.7 0.0
20/08:00pm 21.1 17.2 1.4 27 9.2 SE 11 13 6 7 1018.5 1017.3 0.0
20/07:30pm 22.4 18.5 1.4 25 9.9 SE 11 15 6 8 1018.0 1016.7 0.0
20/07:00pm 23.0 18.8 1.4 24 10.2 SE 13 17 7 9 1017.7 1016.4 0.0
20/06:30pm 24.4 19.4 1.3 22 11.0 ESE 17 24 9 13 1017.2 1015.9 0.0
20/06:00pm 25.5 20.0 0.9 20 11.7 ESE 19 30 10 16 1017.2 1015.9 0.0
20/05:30pm 26.6 20.6 1.1 19 12.3 ESE 22 32 12 17 1016.8 1015.5 0.0
20/05:00pm 27.2 20.8 0.8 18 12.7 ESE 24 39 13 21 1016.6 1015.3 0.0
20/04:30pm 27.4 20.4 -0.6 16 13.2 ESE 26 35 14 19 1016.6 1015.3 0.0
20/04:00pm 28.1 21.8 -0.9 15 13.6 ESE 22 35 12 19 1016.5 1015.2 0.0
20/03:30pm 28.1 21.0 -0.9 15 13.6 ESE 26 43 14 23 1016.7 1015.4 0.0
20/03:00pm 27.2 20.4 -1.7 15 13.3 E 24 35 13 19 1016.8 1015.5 0.0
20/02:30pm 27.7 20.9 -2.2 14 13.7 ESE 24 37 13 20 1017.1 1015.8 0.0
20/02:00pm 27.1 19.9 -1.7 15 13.3 ESE 26 37 14 20 1017.6 1016.3 0.0
20/01:30pm 27.7 21.0 -1.3 15 13.5 ESE 24 41 13 22 1017.8 1016.5 0.0
20/01:00pm 25.9 18.6 -2.7 15 12.8 ESE 26 41 14 22 1018.5 1017.3 0.0
20/12:30pm 25.3 17.7 -2.3 16 12.4 ESE 28 41 15 22 1018.9 1017.7 0.0
20/12:00pm 24.5 17.3 -2.1 17 11.9 E 26 39 14 21 1019.3 1018.1 0.0
20/11:30am 23.0 15.0 -2.6 18 11.2 ESE 30 41 16 22 1019.8 1018.5 0.0
20/11:00am 22.2 14.2 -2.5 19 10.8 ESE 30 43 16 23 1020.3 1019.0 0.0
20/10:30am 20.5 12.4 -3.2 20 10.0 ESE 30 41 16 22 1020.5 1019.2 0.0
20/10:00am 19.7 11.2 -3.2 21 9.6 ESE 32 41 17 22 1020.6 1019.3 0.0
20/09:30am 18.5 10.0 -3.0 23 8.9 ESE 32 48 17 26 1020.5 1019.2 0.0
20/09:27am 18.5 10.3 -3.6 22 9.1 ESE 30 48 16 26 1020.5 1019.2 0.0
20/09:00am 17.2 9.1 -3.5 24 8.4 ESE 30 39 16 21 1020.3 1019.0 0.0
20/08:30am 15.6 9.6 -3.3 27 7.6 SE 19 26 10 14 1019.8 1018.5 0.0
20/08:00am 14.2 8.9 -4.0 28 7.1 SE 15 20 8 11 1019.5 1018.2 0.0
20/07:30am 13.4 8.5 -3.8 30 6.7 SE 13 19 7 10 1019.0 1017.8 0.0
20/07:00am 13.3 8.0 -3.9 30 6.7 SE 15 17 8 9 1018.6 1017.4 0.0
20/06:30am 14.0 8.6 -4.2 28 7.1 SE 15 20 8 11 1018.2 1017.0 0.0
20/06:00am 14.5 8.7 -4.2 27 7.3 ESE 17 20 9 11 1018.1 1016.8 0.0
20/05:30am 15.1 8.8 -4.2 26 7.6 ESE 20 30 11 16 1017.9 1016.6 0.0
20/05:00am 15.4 9.3 -4.0 26 7.7 ESE 19 26 10 14 1017.9 1016.6 0.0
20/04:30am 15.9 9.8 -4.1 25 7.9 ESE 19 24 10 13 1017.7 1016.4 0.0
20/04:00am 15.3 10.3 -4.1 26 7.7 SE 13 19 7 10 1017.8 1016.5 0.0
20/03:30am 14.9 10.3 -3.9 27 7.4 SE 11 15 6 8 1017.9 1016.6 0.0
20/03:00am 15.1 10.5 -3.7 27 7.5 SE 11 17 6 9 1018.0 1016.7 0.0
20/02:30am 14.8 10.2 -4.0 27 7.4 SE 11 17 6 9 1018.0 1016.7 0.0
20/02:00am 15.1 10.1 -4.2 26 7.6 SE 13 15 7 8 1017.8 1016.5 0.0
20/01:30am 15.4 10.4 -4.0 26 7.7 SE 13 17 7 9 1018.1 1016.8 0.0
20/01:00am 15.7 10.7 -4.2 25 7.9 SE 13 17 7 9 1018.4 1017.2 0.0
20/12:30am 16.2 10.8 -4.4 24 8.1 SE 15 19 8 10 1018.5 1017.3 0.0
20/12:00am 16.9 11.5 -4.3 23 8.4 SE 15 20 8 11 1018.9 1017.7 0.0
 
Date/Time
CST
Temp
°C
App
Temp
°C
Dew
Point
°C
Rel
Hum
%
Delta-T
°C
Wind Press
QNH
hPa
Press
MSL
hPa
Rain since
9am
mm
Dir  Spd
km/h
Gust
km/h
Spd
kts
Gust
kts
19/11:30pm 17.1 11.7 -4.8 22 8.7 SE 15 20 8 11 1018.9 1017.7 0.0
19/11:00pm 17.7 11.9 -4.9 21 9.0 SE 17 24 9 13 1019.0 1017.8 0.0
19/10:30pm 18.2 12.0 -5.1 20 9.3 SE 19 28 10 15 1019.0 1017.8 0.0
19/10:00pm 19.0 12.8 -5.1 19 9.7 SE 19 30 10 16 1019.0 1017.8 0.0
19/09:30pm 19.3 13.1 -4.9 19 9.8 SE 19 26 10 14 1018.7 1017.5 0.0
19/09:00pm 18.8 13.8 -4.6 20 9.4 SE 13 19 7 10 1018.6 1017.4 0.0
19/08:30pm 18.6 13.9 -4.8 20 9.4 SE 11 15 6 8 1018.4 1017.2 0.0
19/08:00pm 18.4 14.0 -5.6 19 9.5 SE 9 11 5 6 1017.8 1016.5 0.0
19/07:30pm 19.8 14.6 -5.9 17 10.2 ESE 13 17 7 9 1017.3 1016.0 0.0
19/07:00pm 21.2 15.6 -6.4 15 11.0 ESE 15 20 8 11 1017.0 1015.7 0.0
19/06:30pm 22.2 15.6 -6.5 14 11.6 ESE 20 26 11 14 1016.9 1015.6 0.0
19/06:00pm 23.1 15.8 -5.8 14 11.9 ESE 24 32 13 17 1016.6 1015.3 0.0
19/05:30pm 23.7 17.3 -5.3 14 12.1 ESE 20 35 11 19 1016.3 1015.0 0.0
19/05:00pm 24.1 17.3 -5.0 14 12.3 ESE 22 32 12 17 1016.0 1014.8 0.0
19/04:30pm 25.1 18.4 -4.2 14 12.7 ESE 22 30 12 16 1015.9 1014.7 0.0
19/04:00pm 26.2 20.0 -4.4 13 13.3 ESE 19 30 10 16 1016.0 1014.8 0.0
19/03:30pm 25.6 18.9 -3.8 14 12.9 ESE 22 37 12 20 1016.2 1014.9 0.0
19/03:00pm 24.8 18.1 -4.5 14 12.6 ESE 22 39 12 21 1016.4 1015.1 0.0
19/02:30pm 26.1 19.5 -3.5 14 13.1 ESE 22 43 12 23 1016.5 1015.2 0.0
19/02:00pm 25.4 18.0 -4.0 14 12.8 E 26 37 14 20 1016.7 1015.4 0.0
19/01:30pm 25.0 18.0 -3.4 15 12.4 E 24 35 13 19 1017.3 1016.0 0.0
19/01:00pm 23.4 16.4 -3.8 16 11.7 E 24 39 13 21 1017.8 1016.5 0.0
19/12:30pm 23.2 15.7 -4.8 15 11.8 ESE 26 39 14 21 1018.3 1017.1 0.0
19/12:00pm 22.9 15.5 -3.4 17 11.3 ESE 26 37 14 20 1019.0 1017.8 0.0
19/11:30am 21.9 15.0 -2.7 19 10.6 ESE 24 35 13 19 1019.7 1018.4 0.0
19/11:00am 20.0 13.5 -2.3 22 9.6 ESE 22 33 12 18 1019.9 1018.6 0.0
19/10:30am 20.0 12.4 -2.3 22 9.5 ESE 28 41 15 22 1020.3 1019.0 0.0
19/10:00am 18.0 9.6 -2.8 24 8.7 ESE 32 43 17 23 1020.2 1018.9 0.0
19/09:30am 17.4 9.0 -2.8 25 8.3 ESE 32 43 17 23 1019.9 1018.6 0.0
19/09:12am 17.1 9.5 -2.5 26 8.2 ESE 28 46 15 25 1019.6 1018.3 0.0
19/09:00am 16.6 8.6 -2.5 27 7.9 SE 30 44 16 24 1019.5 1018.2 0.0
19/08:30am 16.1 9.7 -1.9 29 7.5 SE 22 35 12 19 1019.5 1018.2 0.0
19/08:00am 14.9 8.8 -2.5 30 7.1 SE 20 32 11 17 1019.2 1018.0 0.0
19/07:30am 14.2 8.6 -2.7 31 6.8 SE 17 22 9 12 1018.9 1017.7 0.0
19/07:00am 14.1 8.8 -3.2 30 6.9 SE 15 20 8 11 1018.7 1017.5 0.0
19/06:30am 14.5 9.2 -3.3 29 7.1 SE 15 20 8 11 1018.5 1017.3 0.0
19/06:00am 15.1 9.5 -3.2 28 7.3 SE 17 22 9 12 1018.4 1017.2 0.0
19/05:30am 15.4 9.1 -4.0 26 7.7 SE 20 28 11 15 1018.1 1016.8 0.0
19/05:00am 15.7 9.4 -3.7 26 7.8 ESE 20 30 11 16 1018.0 1016.7 0.0
19/04:30am 15.8 9.5 -4.2 25 7.9 ESE 20 30 11 16 1017.9 1016.6 0.0
19/04:00am 16.1 9.8 -3.9 25 8.0 ESE 20 32 11 17 1018.0 1016.7 0.0
19/03:30am 16.4 9.4 -3.7 25 8.1 ESE 24 33 13 18 1018.0 1016.7 0.0
19/03:00am 16.6 10.4 -3.0 26 8.0 ESE 20 30 11 16 1018.1 1016.8 0.0
19/02:30am 16.8 10.8 -2.8 26 8.1 ESE 19 26 10 14 1018.3 1017.1 0.0
19/02:00am 16.8 10.8 -3.3 25 8.2 ESE 19 26 10 14 1018.4 1017.2 0.0
19/01:30am 17.3 11.3 -2.9 25 8.3 ESE 19 26 10 14 1018.3 1017.1 0.0
19/01:00am 17.8 11.6 -3.0 24 8.6 ESE 20 28 11 15 1018.5 1017.3 0.0
19/12:30am 18.0 12.0 -2.8 24 8.6 ESE 19 28 10 15 1018.5 1017.3 0.0
19/12:00am 18.3 12.7 -2.6 24 8.8 SE 17 24 9 13 1018.8 1017.6 0.0
 
Date/Time
CST
Temp
°C
App
Temp
°C
Dew
Point
°C
Rel
Hum
%
Delta-T
°C
Wind Press
QNH
hPa
Press
MSL
hPa
Rain since
9am
mm
Dir  Spd
km/h
Gust
km/h
Spd
kts
Gust
kts
18/11:30pm 18.5 13.0 -1.9 25 8.7 SE 17 26 9 14 1018.9 1017.7 0.0
18/11:00pm 18.2 13.1 -2.1 25 8.6 SE 15 20 8 11 1018.7 1017.5 0.0
18/10:30pm 18.3 13.2 -2.0 25 8.6 SE 15 19 8 10 1018.7 1017.5 0.0
18/10:00pm 18.7 14.0 -1.7 25 8.8 SE 13 17 7 9 1018.8 1017.6 0.0
18/09:30pm 19.3 14.2 -2.3 23 9.2 SE 15 19 8 10 1018.6 1017.4 0.0
18/09:00pm 20.3 14.4 -2.1 22 9.7 SE 19 24 10 13 1018.6 1017.4 0.0
18/08:30pm 20.1 15.3 -2.3 22 9.6 SE 13 17 7 9 1018.4 1017.2 0.0
18/08:00pm 20.9 16.1 -2.2 21 10.0 SE 13 19 7 10 1018.0 1016.7 0.0
18/07:30pm 21.1 16.3 -2.7 20 10.2 SE 13 19 7 10 1017.5 1016.2 0.0
18/07:00pm 22.0 17.1 -3.4 18 10.9 SE 13 17 7 9 1017.4 1016.1 0.0
18/06:30pm 23.0 17.4 -3.3 17 11.3 ESE 17 26 9 14 1017.0 1015.7 0.0
18/06:00pm 24.0 17.0 -3.3 16 11.9 ESE 24 33 13 18 1016.6 1015.3 0.0
18/05:30pm 24.5 17.5 -3.8 15 12.3 ESE 24 39 13 21 1016.4 1015.1 0.0
18/05:00pm 25.5 18.8 -3.9 14 12.8 ESE 22 39 12 21 1016.5 1015.2 0.0
18/04:30pm 25.1 18.4 -4.2 14 12.7 ESE 22 30 12 16 1016.2 1014.9 0.0
18/04:00pm 25.6 18.2 -3.8 14 12.9 E 26 37 14 20 1015.8 1014.6 0.0
18/03:35pm 26.0 18.2 -3.5 14 13.0 ESE 28 52 15 28 1015.9 1014.7 0.0
18/03:30pm 26.1 18.7 -3.5 14 13.1 ESE 26 43 14 23 1015.9 1014.7 0.0
18/03:00pm 26.2 18.4 -3.4 14 13.1 ESE 28 43 15 23 1016.4 1015.1 0.0
18/02:30pm 25.9 17.4 -3.6 14 13.0 ESE 32 43 17 23 1016.7 1015.4 0.0
18/02:00pm 26.0 17.4 -2.6 15 12.8 ESE 33 48 18 26 1017.0 1015.7 0.0
18/01:30pm 25.4 17.7 -3.1 15 12.6 E 28 43 15 23 1017.4 1016.1 0.0
18/01:03pm 25.3 17.7 -2.3 16 12.4 ESE 28 46 15 25 1018.2 1017.0 0.0
18/01:00pm 24.8 16.8 -2.7 16 12.2 ESE 30 46 16 25 1018.3 1017.1 0.0
18/12:39pm 25.0 17.0 -2.5 16 12.3 ESE 30 48 16 26 1018.6 1017.4 0.0
18/12:30pm 24.7 17.5 -2.0 17 12.0 ESE 26 39 14 21 1018.8 1017.6 0.0
18/12:00pm 23.1 14.5 -2.5 18 11.2 E 33 43 18 23 1019.2 1018.0 0.0
18/11:30am 22.7 14.1 -2.8 18 11.1 ESE 33 44 18 24 1019.9 1018.6 0.0
18/11:00am 21.5 13.0 -3.1 19 10.5 ESE 32 46 17 25 1020.8 1019.5 0.0
18/10:46am 21.3 13.3 -2.5 20 10.3 ESE 30 48 16 26 1020.7 1019.4 0.0
18/10:30am 20.4 12.4 -2.6 21 9.8 ESE 30 41 16 22 1021.0 1019.8 0.0
18/10:24am 20.3 12.3 -2.7 21 9.8 ESE 30 48 16 26 1021.0 1019.8 0.0
18/10:00am 19.1 10.4 -3.1 22 9.3 ESE 33 44 18 24 1020.9 1019.6 0.0
18/09:30am 17.6 8.9 -3.2 24 8.5 ESE 33 46 18 25 1021.1 1019.9 0.0
18/09:00am 16.4 8.3 -3.1 26 7.9 SE 30 39 16 21 1020.6 1019.3 0.0
18/08:30am 14.5 8.3 -3.3 29 7.1 SE 20 30 11 16 1020.6 1019.3 0.0
18/08:00am 13.0 8.1 -3.3 32 6.4 SE 13 19 7 10 1020.3 1019.0 0.0
18/07:30am 11.8 7.3 -3.5 34 5.9 SE 11 13 6 7 1020.1 1018.8 0.0
18/07:00am 11.6 6.7 -3.7 34 5.9 SE 13 19 7 10 1019.8 1018.5 0.0
18/06:30am 11.9 7.4 -3.4 34 5.9 SE 11 15 6 8 1019.8 1018.5 0.0
18/06:00am 12.5 7.6 -3.3 33 6.1 SE 13 17 7 9 1019.6 1018.3 0.0
18/05:30am 13.0 7.8 -2.9 33 6.3 SE 15 20 8 11 1019.7 1018.4 0.0
18/05:00am 13.3 8.4 -3.0 32 6.5 SE 13 19 7 10 1019.5 1018.2 0.0
18/04:30am 13.7 8.1 -2.7 32 6.5 SE 17 24 9 13 1019.2 1018.0 0.0
18/04:00am 14.1 8.9 -2.8 31 6.8 SE 15 20 8 11 1019.2 1018.0 0.0
18/03:30am 14.9 8.9 -3.0 29 7.2 SE 19 26 10 14 1019.2 1018.0 0.0
18/03:00am 15.5 9.3 -2.9 28 7.4 SE 20 28 11 15 1019.2 1018.0 0.0
18/02:30am 15.9 9.3 -3.0 27 7.7 SE 22 33 12 18 1019.5 1018.2 0.0
18/02:00am 16.3 9.3 -3.7 25 8.0 ESE 24 32 13 17 1019.7 1018.4 0.0
18/01:30am 16.4 10.3 -3.7 25 8.1 SE 19 26 10 14 1020.0 1018.7 0.0
18/01:00am 15.5 10.2 -3.9 26 7.7 SE 15 22 8 12 1020.1 1018.8 0.0
18/12:30am 15.1 9.3 -4.2 26 7.6 SE 17 22 9 12 1020.0 1018.7 0.0
18/12:00am 15.6 9.4 -4.9 24 8.0 SE 19 24 10 13 1020.1 1018.8 0.0

Other Formats:

Comma delimited format used in spreadsheet applications
http://www.bom.gov.au/fwo/IDD60801/IDD60801.94231.axf

JavaScript Object Notation format (JSON) in row-major order
http://www.bom.gov.au/fwo/IDD60801/IDD60801.94231.json